sensor_id;sensor_type;location;lat;lon;timestamp;P1;durP1;ratioP1;P2;durP2;ratioP2
67762;SDS011;54566;52.022;5.582;2022-09-09T00:00:15;3.88;;;1.70;;
67762;SDS011;54566;52.022;5.582;2022-09-09T00:02:44;3.90;;;1.90;;
67762;SDS011;54566;52.022;5.582;2022-09-09T00:05:21;3.83;;;1.90;;
67762;SDS011;54566;52.022;5.582;2022-09-09T00:07:52;6.53;;;2.35;;
67762;SDS011;54566;52.022;5.582;2022-09-09T00:15:20;3.03;;;2.20;;
67762;SDS011;54566;52.022;5.582;2022-09-09T00:17:51;3.15;;;2.40;;
67762;SDS011;54566;52.022;5.582;2022-09-09T00:22:52;6.32;;;2.83;;
67762;SDS011;54566;52.022;5.582;2022-09-09T00:25:24;6.18;;;2.80;;
67762;SDS011;54566;52.022;5.582;2022-09-09T00:27:52;7.80;;;2.85;;
67762;SDS011;54566;52.022;5.582;2022-09-09T00:30:20;5.15;;;2.72;;
67762;SDS011;54566;52.022;5.582;2022-09-09T00:35:33;3.38;;;2.55;;
67762;SDS011;54566;52.022;5.582;2022-09-09T00:38:16;6.82;;;2.85;;
67762;SDS011;54566;52.022;5.582;2022-09-09T00:40:49;5.40;;;3.25;;
67762;SDS011;54566;52.022;5.582;2022-09-09T00:43:21;6.95;;;3.17;;
67762;SDS011;54566;52.022;5.582;2022-09-09T00:46:05;6.20;;;3.10;;
67762;SDS011;54566;52.022;5.582;2022-09-09T00:48:40;8.05;;;3.10;;
67762;SDS011;54566;52.022;5.582;2022-09-09T00:51:15;6.15;;;3.38;;
67762;SDS011;54566;52.022;5.582;2022-09-09T00:56:19;4.20;;;3.00;;
67762;SDS011;54566;52.022;5.582;2022-09-09T00:58:52;4.43;;;2.67;;
67762;SDS011;54566;52.022;5.582;2022-09-09T01:01:21;9.27;;;3.10;;
67762;SDS011;54566;52.022;5.582;2022-09-09T01:03:54;7.28;;;2.78;;
67762;SDS011;54566;52.022;5.582;2022-09-09T01:16:44;3.70;;;2.30;;
67762;SDS011;54566;52.022;5.582;2022-09-09T01:19:13;6.00;;;2.72;;
67762;SDS011;54566;52.022;5.582;2022-09-09T01:21:48;6.15;;;2.78;;
67762;SDS011;54566;52.022;5.582;2022-09-09T01:26:48;3.55;;;2.30;;
67762;SDS011;54566;52.022;5.582;2022-09-09T01:29:16;4.43;;;2.70;;
67762;SDS011;54566;52.022;5.582;2022-09-09T01:31:51;6.60;;;2.97;;
67762;SDS011;54566;52.022;5.582;2022-09-09T01:34:18;7.43;;;3.13;;
67762;SDS011;54566;52.022;5.582;2022-09-09T01:39:16;12.35;;;3.45;;
67762;SDS011;54566;52.022;5.582;2022-09-09T01:41:42;4.93;;;2.88;;
67762;SDS011;54566;52.022;5.582;2022-09-09T01:44:08;6.00;;;3.22;;
67762;SDS011;54566;52.022;5.582;2022-09-09T01:46:35;7.97;;;3.50;;
67762;SDS011;54566;52.022;5.582;2022-09-09T01:49:02;6.53;;;3.35;;
67762;SDS011;54566;52.022;5.582;2022-09-09T01:51:28;4.93;;;3.30;;
67762;SDS011;54566;52.022;5.582;2022-09-09T01:53:54;5.43;;;3.67;;
67762;SDS011;54566;52.022;5.582;2022-09-09T01:56:35;6.40;;;3.22;;
67762;SDS011;54566;52.022;5.582;2022-09-09T01:59:07;7.40;;;3.53;;
67762;SDS011;54566;52.022;5.582;2022-09-09T02:06:49;7.70;;;3.50;;
67762;SDS011;54566;52.022;5.582;2022-09-09T02:09:19;5.80;;;3.30;;
67762;SDS011;54566;52.022;5.582;2022-09-09T02:11:48;8.63;;;3.38;;
67762;SDS011;54566;52.022;5.582;2022-09-09T02:14:17;9.98;;;3.70;;
67762;SDS011;54566;52.022;5.582;2022-09-09T02:16:45;8.38;;;3.53;;
67762;SDS011;54566;52.022;5.582;2022-09-09T02:19:23;6.97;;;2.95;;
67762;SDS011;54566;52.022;5.582;2022-09-09T02:21:52;9.70;;;3.08;;
67762;SDS011;54566;52.022;5.582;2022-09-09T02:24:18;7.10;;;2.78;;
67762;SDS011;54566;52.022;5.582;2022-09-09T02:26:44;4.65;;;3.03;;
67762;SDS011;54566;52.022;5.582;2022-09-09T02:29:16;5.40;;;3.22;;
67762;SDS011;54566;52.022;5.582;2022-09-09T02:31:43;8.02;;;2.88;;
67762;SDS011;54566;52.022;5.582;2022-09-09T02:34:10;6.00;;;3.30;;
67762;SDS011;54566;52.022;5.582;2022-09-09T02:36:38;8.27;;;3.17;;
67762;SDS011;54566;52.022;5.582;2022-09-09T02:39:06;5.28;;;2.75;;
67762;SDS011;54566;52.022;5.582;2022-09-09T02:41:34;4.05;;;2.63;;
67762;SDS011;54566;52.022;5.582;2022-09-09T02:44:00;7.68;;;3.25;;
67762;SDS011;54566;52.022;5.582;2022-09-09T02:49:19;6.25;;;3.47;;
67762;SDS011;54566;52.022;5.582;2022-09-09T02:54:35;6.22;;;3.13;;
67762;SDS011;54566;52.022;5.582;2022-09-09T02:57:07;5.18;;;2.85;;
67762;SDS011;54566;52.022;5.582;2022-09-09T02:59:35;10.93;;;3.17;;
67762;SDS011;54566;52.022;5.582;2022-09-09T03:02:01;10.60;;;3.30;;
67762;SDS011;54566;52.022;5.582;2022-09-09T03:04:27;9.63;;;2.90;;
67762;SDS011;54566;52.022;5.582;2022-09-09T03:06:54;7.50;;;3.40;;
67762;SDS011;54566;52.022;5.582;2022-09-09T03:09:21;4.07;;;2.92;;
67762;SDS011;54566;52.022;5.582;2022-09-09T03:11:47;5.93;;;3.17;;
67762;SDS011;54566;52.022;5.582;2022-09-09T03:14:14;7.50;;;2.80;;
67762;SDS011;54566;52.022;5.582;2022-09-09T03:16:40;12.02;;;3.38;;
67762;SDS011;54566;52.022;5.582;2022-09-09T03:19:07;6.07;;;3.25;;
67762;SDS011;54566;52.022;5.582;2022-09-09T03:21:34;7.53;;;3.30;;
67762;SDS011;54566;52.022;5.582;2022-09-09T03:24:00;4.88;;;3.30;;
67762;SDS011;54566;52.022;5.582;2022-09-09T03:26:28;8.93;;;3.10;;
67762;SDS011;54566;52.022;5.582;2022-09-09T03:28:55;6.88;;;3.20;;
67762;SDS011;54566;52.022;5.582;2022-09-09T03:31:21;7.97;;;3.53;;
67762;SDS011;54566;52.022;5.582;2022-09-09T03:33:47;6.43;;;3.72;;
67762;SDS011;54566;52.022;5.582;2022-09-09T03:36:13;8.40;;;4.05;;
67762;SDS011;54566;52.022;5.582;2022-09-09T03:38:39;7.15;;;3.92;;
67762;SDS011;54566;52.022;5.582;2022-09-09T03:41:05;9.85;;;4.40;;
67762;SDS011;54566;52.022;5.582;2022-09-09T03:43:32;11.30;;;4.40;;
67762;SDS011;54566;52.022;5.582;2022-09-09T03:45:59;8.00;;;3.60;;
67762;SDS011;54566;52.022;5.582;2022-09-09T03:48:25;8.32;;;4.35;;
67762;SDS011;54566;52.022;5.582;2022-09-09T03:50:53;7.78;;;4.20;;
67762;SDS011;54566;52.022;5.582;2022-09-09T03:53:21;11.65;;;3.92;;
67762;SDS011;54566;52.022;5.582;2022-09-09T03:55:48;9.60;;;4.25;;
67762;SDS011;54566;52.022;5.582;2022-09-09T03:58:15;9.63;;;4.32;;
67762;SDS011;54566;52.022;5.582;2022-09-09T04:00:43;9.10;;;4.15;;
67762;SDS011;54566;52.022;5.582;2022-09-09T04:03:09;11.43;;;3.63;;
67762;SDS011;54566;52.022;5.582;2022-09-09T04:05:36;7.38;;;4.45;;
67762;SDS011;54566;52.022;5.582;2022-09-09T04:08:07;9.38;;;4.43;;
67762;SDS011;54566;52.022;5.582;2022-09-09T04:10:33;12.27;;;3.75;;
67762;SDS011;54566;52.022;5.582;2022-09-09T04:15:28;6.15;;;3.80;;
67762;SDS011;54566;52.022;5.582;2022-09-09T04:17:54;15.98;;;4.13;;
67762;SDS011;54566;52.022;5.582;2022-09-09T04:20:20;10.60;;;3.75;;
67762;SDS011;54566;52.022;5.582;2022-09-09T04:22:47;11.25;;;3.90;;
67762;SDS011;54566;52.022;5.582;2022-09-09T04:25:13;7.85;;;3.70;;
67762;SDS011;54566;52.022;5.582;2022-09-09T04:27:39;12.77;;;4.00;;
67762;SDS011;54566;52.022;5.582;2022-09-09T04:30:06;9.30;;;3.90;;
67762;SDS011;54566;52.022;5.582;2022-09-09T04:32:35;8.50;;;3.85;;
67762;SDS011;54566;52.022;5.582;2022-09-09T04:35:02;9.65;;;3.80;;
67762;SDS011;54566;52.022;5.582;2022-09-09T04:37:28;8.18;;;3.95;;
67762;SDS011;54566;52.022;5.582;2022-09-09T04:39:54;9.05;;;3.75;;
67762;SDS011;54566;52.022;5.582;2022-09-09T04:42:20;13.48;;;4.13;;
67762;SDS011;54566;52.022;5.582;2022-09-09T04:44:47;10.88;;;3.95;;
67762;SDS011;54566;52.022;5.582;2022-09-09T04:47:13;10.23;;;3.72;;
67762;SDS011;54566;52.022;5.582;2022-09-09T04:49:39;18.58;;;3.67;;
67762;SDS011;54566;52.022;5.582;2022-09-09T04:52:06;6.82;;;2.95;;
67762;SDS011;54566;52.022;5.582;2022-09-09T04:54:31;10.57;;;3.80;;
67762;SDS011;54566;52.022;5.582;2022-09-09T04:56:57;7.18;;;3.42;;
67762;SDS011;54566;52.022;5.582;2022-09-09T04:59:23;10.10;;;3.45;;
67762;SDS011;54566;52.022;5.582;2022-09-09T05:01:50;12.57;;;3.85;;
67762;SDS011;54566;52.022;5.582;2022-09-09T05:04:16;8.27;;;3.50;;
67762;SDS011;54566;52.022;5.582;2022-09-09T05:06:42;15.75;;;3.50;;
67762;SDS011;54566;52.022;5.582;2022-09-09T05:09:08;9.73;;;3.47;;
67762;SDS011;54566;52.022;5.582;2022-09-09T05:11:34;6.28;;;3.72;;
67762;SDS011;54566;52.022;5.582;2022-09-09T05:14:02;16.70;;;3.17;;
67762;SDS011;54566;52.022;5.582;2022-09-09T05:16:28;17.40;;;3.40;;
67762;SDS011;54566;52.022;5.582;2022-09-09T05:18:55;12.30;;;3.50;;
67762;SDS011;54566;52.022;5.582;2022-09-09T05:21:21;7.07;;;3.20;;
67762;SDS011;54566;52.022;5.582;2022-09-09T05:23:48;13.05;;;3.50;;
67762;SDS011;54566;52.022;5.582;2022-09-09T05:26:16;14.68;;;3.40;;
67762;SDS011;54566;52.022;5.582;2022-09-09T05:28:42;10.65;;;3.10;;
67762;SDS011;54566;52.022;5.582;2022-09-09T05:31:09;14.55;;;3.10;;
67762;SDS011;54566;52.022;5.582;2022-09-09T05:33:39;13.98;;;2.85;;
67762;SDS011;54566;52.022;5.582;2022-09-09T05:36:10;8.43;;;3.22;;
67762;SDS011;54566;52.022;5.582;2022-09-09T05:38:38;14.95;;;3.00;;
67762;SDS011;54566;52.022;5.582;2022-09-09T05:41:04;15.15;;;2.90;;
67762;SDS011;54566;52.022;5.582;2022-09-09T05:43:30;14.45;;;3.03;;
67762;SDS011;54566;52.022;5.582;2022-09-09T05:48:30;15.57;;;3.03;;
67762;SDS011;54566;52.022;5.582;2022-09-09T05:50:57;8.07;;;2.75;;
67762;SDS011;54566;52.022;5.582;2022-09-09T05:53:23;9.50;;;2.88;;
67762;SDS011;54566;52.022;5.582;2022-09-09T05:55:49;10.63;;;3.10;;
67762;SDS011;54566;52.022;5.582;2022-09-09T05:58:15;10.13;;;2.85;;
67762;SDS011;54566;52.022;5.582;2022-09-09T06:00:41;12.82;;;2.65;;
67762;SDS011;54566;52.022;5.582;2022-09-09T06:03:10;9.35;;;2.85;;
67762;SDS011;54566;52.022;5.582;2022-09-09T06:05:36;13.98;;;2.97;;
67762;SDS011;54566;52.022;5.582;2022-09-09T06:08:02;13.98;;;2.92;;
67762;SDS011;54566;52.022;5.582;2022-09-09T06:10:28;9.82;;;2.67;;
67762;SDS011;54566;52.022;5.582;2022-09-09T06:12:54;9.65;;;2.85;;
67762;SDS011;54566;52.022;5.582;2022-09-09T06:15:20;15.40;;;3.10;;
67762;SDS011;54566;52.022;5.582;2022-09-09T06:17:46;7.30;;;2.63;;
67762;SDS011;54566;52.022;5.582;2022-09-09T06:20:14;7.05;;;2.95;;
67762;SDS011;54566;52.022;5.582;2022-09-09T06:22:41;12.57;;;3.38;;
67762;SDS011;54566;52.022;5.582;2022-09-09T06:25:08;10.68;;;3.03;;
67762;SDS011;54566;52.022;5.582;2022-09-09T06:27:34;10.52;;;3.58;;
67762;SDS011;54566;52.022;5.582;2022-09-09T06:30:00;15.02;;;3.55;;
67762;SDS011;54566;52.022;5.582;2022-09-09T06:32:29;14.75;;;3.30;;
67762;SDS011;54566;52.022;5.582;2022-09-09T06:34:55;13.50;;;3.40;;
67762;SDS011;54566;52.022;5.582;2022-09-09T06:37:20;13.55;;;3.15;;
67762;SDS011;54566;52.022;5.582;2022-09-09T06:39:49;10.95;;;2.78;;
67762;SDS011;54566;52.022;5.582;2022-09-09T06:42:15;13.93;;;3.38;;
67762;SDS011;54566;52.022;5.582;2022-09-09T06:44:41;10.65;;;2.92;;
67762;SDS011;54566;52.022;5.582;2022-09-09T06:47:07;15.30;;;3.22;;
67762;SDS011;54566;52.022;5.582;2022-09-09T06:49:33;11.48;;;2.97;;
67762;SDS011;54566;52.022;5.582;2022-09-09T06:52:00;10.65;;;2.70;;
67762;SDS011;54566;52.022;5.582;2022-09-09T06:54:25;10.55;;;3.00;;
67762;SDS011;54566;52.022;5.582;2022-09-09T06:56:51;7.72;;;2.75;;
67762;SDS011;54566;52.022;5.582;2022-09-09T06:59:18;13.95;;;3.08;;
67762;SDS011;54566;52.022;5.582;2022-09-09T07:01:44;16.20;;;3.28;;
67762;SDS011;54566;52.022;5.582;2022-09-09T07:04:11;16.13;;;3.38;;
67762;SDS011;54566;52.022;5.582;2022-09-09T07:06:39;14.27;;;3.85;;
67762;SDS011;54566;52.022;5.582;2022-09-09T07:09:09;22.85;;;2.75;;
67762;SDS011;54566;52.022;5.582;2022-09-09T07:11:39;18.10;;;3.20;;
67762;SDS011;54566;52.022;5.582;2022-09-09T07:14:07;8.68;;;2.53;;
67762;SDS011;54566;52.022;5.582;2022-09-09T07:16:33;13.88;;;3.13;;
67762;SDS011;54566;52.022;5.582;2022-09-09T07:19:02;13.77;;;2.53;;
67762;SDS011;54566;52.022;5.582;2022-09-09T07:21:28;15.52;;;3.00;;
67762;SDS011;54566;52.022;5.582;2022-09-09T07:23:55;12.27;;;3.58;;
67762;SDS011;54566;52.022;5.582;2022-09-09T07:26:22;16.90;;;3.03;;
67762;SDS011;54566;52.022;5.582;2022-09-09T07:28:48;10.30;;;3.33;;
67762;SDS011;54566;52.022;5.582;2022-09-09T07:31:15;17.13;;;3.50;;
67762;SDS011;54566;52.022;5.582;2022-09-09T07:33:42;16.35;;;2.53;;
67762;SDS011;54566;52.022;5.582;2022-09-09T07:38:38;21.48;;;3.35;;
67762;SDS011;54566;52.022;5.582;2022-09-09T07:41:08;8.13;;;2.28;;
67762;SDS011;54566;52.022;5.582;2022-09-09T07:43:37;11.88;;;2.42;;
67762;SDS011;54566;52.022;5.582;2022-09-09T07:46:03;14.45;;;2.50;;
67762;SDS011;54566;52.022;5.582;2022-09-09T07:48:30;11.98;;;2.25;;
67762;SDS011;54566;52.022;5.582;2022-09-09T07:53:32;11.35;;;2.63;;
67762;SDS011;54566;52.022;5.582;2022-09-09T07:56:11;11.55;;;2.35;;
67762;SDS011;54566;52.022;5.582;2022-09-09T07:58:38;9.80;;;2.13;;
67762;SDS011;54566;52.022;5.582;2022-09-09T08:01:14;15.07;;;2.88;;
67762;SDS011;54566;52.022;5.582;2022-09-09T08:03:43;11.45;;;2.38;;
67762;SDS011;54566;52.022;5.582;2022-09-09T08:06:09;9.35;;;2.30;;
67762;SDS011;54566;52.022;5.582;2022-09-09T08:08:37;10.82;;;2.15;;
67762;SDS011;54566;52.022;5.582;2022-09-09T08:11:08;11.93;;;1.83;;
67762;SDS011;54566;52.022;5.582;2022-09-09T08:13:35;11.25;;;2.38;;
67762;SDS011;54566;52.022;5.582;2022-09-09T08:16:35;9.68;;;2.22;;
67762;SDS011;54566;52.022;5.582;2022-09-09T08:18:53;8.25;;;2.53;;
67762;SDS011;54566;52.022;5.582;2022-09-09T08:21:24;10.73;;;2.50;;
67762;SDS011;54566;52.022;5.582;2022-09-09T08:23:53;8.05;;;1.95;;
67762;SDS011;54566;52.022;5.582;2022-09-09T08:26:23;10.75;;;2.20;;
67762;SDS011;54566;52.022;5.582;2022-09-09T08:28:51;12.30;;;2.63;;
67762;SDS011;54566;52.022;5.582;2022-09-09T08:31:22;15.82;;;2.58;;
67762;SDS011;54566;52.022;5.582;2022-09-09T08:33:48;12.52;;;1.98;;
67762;SDS011;54566;52.022;5.582;2022-09-09T08:36:16;10.07;;;2.05;;
67762;SDS011;54566;52.022;5.582;2022-09-09T08:38:42;12.73;;;2.03;;
67762;SDS011;54566;52.022;5.582;2022-09-09T08:47:17;12.50;;;2.72;;
67762;SDS011;54566;52.022;5.582;2022-09-09T08:51:42;10.05;;;1.90;;
67762;SDS011;54566;52.022;5.582;2022-09-09T08:54:08;12.57;;;2.60;;
67762;SDS011;54566;52.022;5.582;2022-09-09T08:56:35;13.60;;;2.40;;
67762;SDS011;54566;52.022;5.582;2022-09-09T08:59:02;8.57;;;1.75;;
67762;SDS011;54566;52.022;5.582;2022-09-09T09:09:29;16.73;;;2.47;;
67762;SDS011;54566;52.022;5.582;2022-09-09T09:11:58;8.90;;;2.00;;
67762;SDS011;54566;52.022;5.582;2022-09-09T09:17:10;7.13;;;1.52;;
67762;SDS011;54566;52.022;5.582;2022-09-09T09:19:38;17.20;;;2.35;;
67762;SDS011;54566;52.022;5.582;2022-09-09T09:27:13;12.88;;;2.20;;
67762;SDS011;54566;52.022;5.582;2022-09-09T09:29:39;15.23;;;1.70;;
67762;SDS011;54566;52.022;5.582;2022-09-09T09:32:08;8.18;;;2.22;;
67762;SDS011;54566;52.022;5.582;2022-09-09T09:34:35;14.20;;;2.22;;
67762;SDS011;54566;52.022;5.582;2022-09-09T09:37:01;10.20;;;1.83;;
67762;SDS011;54566;52.022;5.582;2022-09-09T09:41:54;10.38;;;2.00;;
67762;SDS011;54566;52.022;5.582;2022-09-09T09:46:46;8.98;;;1.65;;
67762;SDS011;54566;52.022;5.582;2022-09-09T09:49:12;13.60;;;2.08;;
67762;SDS011;54566;52.022;5.582;2022-09-09T09:51:38;11.63;;;2.03;;
67762;SDS011;54566;52.022;5.582;2022-09-09T09:56:47;9.40;;;1.70;;
67762;SDS011;54566;52.022;5.582;2022-09-09T10:02:21;11.30;;;2.63;;
67762;SDS011;54566;52.022;5.582;2022-09-09T10:05:00;11.93;;;2.22;;
67762;SDS011;54566;52.022;5.582;2022-09-09T10:07:26;7.22;;;2.05;;
67762;SDS011;54566;52.022;5.582;2022-09-09T10:09:53;12.27;;;1.90;;
67762;SDS011;54566;52.022;5.582;2022-09-09T10:14:48;12.95;;;2.10;;
67762;SDS011;54566;52.022;5.582;2022-09-09T10:22:32;11.18;;;2.22;;
67762;SDS011;54566;52.022;5.582;2022-09-09T10:25:04;10.80;;;2.00;;
67762;SDS011;54566;52.022;5.582;2022-09-09T10:30:18;16.67;;;2.25;;
67762;SDS011;54566;52.022;5.582;2022-09-09T10:42:46;7.40;;;2.00;;
67762;SDS011;54566;52.022;5.582;2022-09-09T10:55:20;10.32;;;1.88;;
67762;SDS011;54566;52.022;5.582;2022-09-09T10:57:47;8.15;;;2.33;;
67762;SDS011;54566;52.022;5.582;2022-09-09T11:00:18;11.02;;;2.17;;
67762;SDS011;54566;52.022;5.582;2022-09-09T11:02:45;10.85;;;2.45;;
67762;SDS011;54566;52.022;5.582;2022-09-09T11:05:20;6.38;;;2.13;;
67762;SDS011;54566;52.022;5.582;2022-09-09T11:07:57;9.32;;;2.25;;
67762;SDS011;54566;52.022;5.582;2022-09-09T11:10:34;13.52;;;2.83;;
67762;SDS011;54566;52.022;5.582;2022-09-09T11:13:06;12.82;;;2.35;;
67762;SDS011;54566;52.022;5.582;2022-09-09T11:15:36;8.82;;;3.20;;
67762;SDS011;54566;52.022;5.582;2022-09-09T11:18:06;9.63;;;2.30;;
67762;SDS011;54566;52.022;5.582;2022-09-09T11:20:34;12.85;;;2.47;;
67762;SDS011;54566;52.022;5.582;2022-09-09T11:23:11;13.68;;;2.85;;
67762;SDS011;54566;52.022;5.582;2022-09-09T11:35:40;12.63;;;2.63;;
67762;SDS011;54566;52.022;5.582;2022-09-09T11:40:45;6.70;;;2.17;;
67762;SDS011;54566;52.022;5.582;2022-09-09T11:43:17;16.20;;;2.90;;
67762;SDS011;54566;52.022;5.582;2022-09-09T11:45:53;10.32;;;2.47;;
67762;SDS011;54566;52.022;5.582;2022-09-09T11:48:23;10.38;;;2.42;;
67762;SDS011;54566;52.022;5.582;2022-09-09T11:50:58;11.50;;;2.20;;
67762;SDS011;54566;52.022;5.582;2022-09-09T11:53:25;13.20;;;2.22;;
67762;SDS011;54566;52.022;5.582;2022-09-09T11:56:11;11.43;;;2.03;;
67762;SDS011;54566;52.022;5.582;2022-09-09T11:58:39;12.80;;;2.13;;
67762;SDS011;54566;52.022;5.582;2022-09-09T12:01:25;10.48;;;2.17;;
67762;SDS011;54566;52.022;5.582;2022-09-09T12:03:55;8.70;;;1.83;;
67762;SDS011;54566;52.022;5.582;2022-09-09T12:06:29;9.77;;;2.05;;
67762;SDS011;54566;52.022;5.582;2022-09-09T12:09:05;8.50;;;2.13;;
67762;SDS011;54566;52.022;5.582;2022-09-09T12:11:33;7.18;;;1.80;;
67762;SDS011;54566;52.022;5.582;2022-09-09T12:13:59;8.65;;;1.80;;
67762;SDS011;54566;52.022;5.582;2022-09-09T12:16:33;15.98;;;2.30;;
67762;SDS011;54566;52.022;5.582;2022-09-09T12:19:03;9.95;;;2.17;;
67762;SDS011;54566;52.022;5.582;2022-09-09T12:21:35;9.63;;;2.20;;
67762;SDS011;54566;52.022;5.582;2022-09-09T12:24:11;9.80;;;1.77;;
67762;SDS011;54566;52.022;5.582;2022-09-09T12:26:38;11.35;;;2.95;;
67762;SDS011;54566;52.022;5.582;2022-09-09T12:32:00;8.13;;;2.00;;
67762;SDS011;54566;52.022;5.582;2022-09-09T12:34:34;6.97;;;2.03;;
67762;SDS011;54566;52.022;5.582;2022-09-09T12:37:08;8.68;;;1.85;;
67762;SDS011;54566;52.022;5.582;2022-09-09T12:39:38;8.32;;;2.40;;
67762;SDS011;54566;52.022;5.582;2022-09-09T12:42:16;12.40;;;2.40;;
67762;SDS011;54566;52.022;5.582;2022-09-09T12:44:50;9.23;;;1.88;;
67762;SDS011;54566;52.022;5.582;2022-09-09T12:47:16;6.60;;;2.30;;
67762;SDS011;54566;52.022;5.582;2022-09-09T12:49:44;7.47;;;1.85;;
67762;SDS011;54566;52.022;5.582;2022-09-09T12:52:14;9.88;;;2.05;;
67762;SDS011;54566;52.022;5.582;2022-09-09T12:54:44;15.20;;;2.58;;
67762;SDS011;54566;52.022;5.582;2022-09-09T12:57:15;7.50;;;2.00;;
67762;SDS011;54566;52.022;5.582;2022-09-09T12:59:42;10.18;;;2.42;;
67762;SDS011;54566;52.022;5.582;2022-09-09T13:04:45;7.00;;;2.13;;
67762;SDS011;54566;52.022;5.582;2022-09-09T13:07:12;7.03;;;1.83;;
67762;SDS011;54566;52.022;5.582;2022-09-09T13:09:38;8.38;;;1.50;;
67762;SDS011;54566;52.022;5.582;2022-09-09T13:12:05;5.28;;;1.58;;
67762;SDS011;54566;52.022;5.582;2022-09-09T13:14:35;7.07;;;1.90;;
67762;SDS011;54566;52.022;5.582;2022-09-09T13:17:03;6.93;;;1.90;;
67762;SDS011;54566;52.022;5.582;2022-09-09T13:19:31;9.38;;;1.92;;
67762;SDS011;54566;52.022;5.582;2022-09-09T13:21:57;9.90;;;1.60;;
67762;SDS011;54566;52.022;5.582;2022-09-09T13:26:55;10.40;;;2.13;;
67762;SDS011;54566;52.022;5.582;2022-09-09T13:29:21;4.40;;;1.67;;
67762;SDS011;54566;52.022;5.582;2022-09-09T13:31:47;8.18;;;1.80;;
67762;SDS011;54566;52.022;5.582;2022-09-09T13:34:28;8.32;;;2.22;;
67762;SDS011;54566;52.022;5.582;2022-09-09T13:37:04;9.23;;;2.17;;
67762;SDS011;54566;52.022;5.582;2022-09-09T13:39:32;5.22;;;1.80;;
67762;SDS011;54566;52.022;5.582;2022-09-09T13:41:59;5.43;;;1.50;;
67762;SDS011;54566;52.022;5.582;2022-09-09T13:44:27;4.97;;;1.50;;
67762;SDS011;54566;52.022;5.582;2022-09-09T13:47:04;12.18;;;2.35;;
67762;SDS011;54566;52.022;5.582;2022-09-09T13:49:31;11.52;;;1.70;;
67762;SDS011;54566;52.022;5.582;2022-09-09T13:52:05;6.53;;;1.88;;
67762;SDS011;54566;52.022;5.582;2022-09-09T13:54:32;6.65;;;1.92;;
67762;SDS011;54566;52.022;5.582;2022-09-09T13:56:58;6.28;;;1.92;;
67762;SDS011;54566;52.022;5.582;2022-09-09T13:59:26;8.30;;;1.63;;
67762;SDS011;54566;52.022;5.582;2022-09-09T14:01:52;4.70;;;1.80;;
67762;SDS011;54566;52.022;5.582;2022-09-09T14:04:18;5.75;;;1.65;;
67762;SDS011;54566;52.022;5.582;2022-09-09T14:06:47;6.30;;;1.50;;
67762;SDS011;54566;52.022;5.582;2022-09-09T14:09:14;8.20;;;1.48;;
67762;SDS011;54566;52.022;5.582;2022-09-09T14:11:40;6.40;;;1.60;;
67762;SDS011;54566;52.022;5.582;2022-09-09T14:14:07;6.72;;;1.63;;
67762;SDS011;54566;52.022;5.582;2022-09-09T14:16:33;9.18;;;2.05;;
67762;SDS011;54566;52.022;5.582;2022-09-09T14:19:00;7.72;;;1.50;;
67762;SDS011;54566;52.022;5.582;2022-09-09T14:21:27;7.28;;;1.67;;
67762;SDS011;54566;52.022;5.582;2022-09-09T14:26:22;5.35;;;1.60;;
67762;SDS011;54566;52.022;5.582;2022-09-09T14:28:48;5.40;;;1.77;;
67762;SDS011;54566;52.022;5.582;2022-09-09T14:31:15;6.22;;;1.90;;
67762;SDS011;54566;52.022;5.582;2022-09-09T14:33:42;6.45;;;1.95;;
67762;SDS011;54566;52.022;5.582;2022-09-09T14:36:08;6.00;;;2.15;;
67762;SDS011;54566;52.022;5.582;2022-09-09T14:38:35;7.63;;;2.40;;
67762;SDS011;54566;52.022;5.582;2022-09-09T14:41:06;5.80;;;1.90;;
67762;SDS011;54566;52.022;5.582;2022-09-09T14:43:33;8.52;;;1.88;;
67762;SDS011;54566;52.022;5.582;2022-09-09T14:46:05;9.45;;;1.70;;
67762;SDS011;54566;52.022;5.582;2022-09-09T14:48:32;7.45;;;1.77;;
67762;SDS011;54566;52.022;5.582;2022-09-09T14:51:04;9.18;;;2.63;;
67762;SDS011;54566;52.022;5.582;2022-09-09T14:53:30;10.52;;;1.73;;
67762;SDS011;54566;52.022;5.582;2022-09-09T14:56:04;6.35;;;1.60;;
67762;SDS011;54566;52.022;5.582;2022-09-09T14:58:30;5.32;;;1.65;;
67762;SDS011;54566;52.022;5.582;2022-09-09T15:01:01;9.48;;;1.80;;
67762;SDS011;54566;52.022;5.582;2022-09-09T15:03:27;9.45;;;1.90;;
67762;SDS011;54566;52.022;5.582;2022-09-09T15:05:53;8.85;;;1.67;;
67762;SDS011;54566;52.022;5.582;2022-09-09T15:08:19;5.88;;;1.35;;
67762;SDS011;54566;52.022;5.582;2022-09-09T15:10:47;11.40;;;2.17;;
67762;SDS011;54566;52.022;5.582;2022-09-09T15:13:16;7.18;;;1.67;;
67762;SDS011;54566;52.022;5.582;2022-09-09T15:15:42;6.03;;;1.63;;
67762;SDS011;54566;52.022;5.582;2022-09-09T15:18:08;5.07;;;1.40;;
67762;SDS011;54566;52.022;5.582;2022-09-09T15:20:35;6.72;;;1.58;;
67762;SDS011;54566;52.022;5.582;2022-09-09T15:23:02;4.10;;;1.33;;
67762;SDS011;54566;52.022;5.582;2022-09-09T15:25:28;4.75;;;1.30;;
67762;SDS011;54566;52.022;5.582;2022-09-09T15:27:54;6.13;;;1.50;;
67762;SDS011;54566;52.022;5.582;2022-09-09T15:30:21;4.30;;;1.65;;
67762;SDS011;54566;52.022;5.582;2022-09-09T15:32:47;5.65;;;2.15;;
67762;SDS011;54566;52.022;5.582;2022-09-09T15:35:13;6.63;;;1.80;;
67762;SDS011;54566;52.022;5.582;2022-09-09T15:37:39;5.03;;;1.80;;
67762;SDS011;54566;52.022;5.582;2022-09-09T15:40:05;5.78;;;1.88;;
67762;SDS011;54566;52.022;5.582;2022-09-09T15:42:31;6.70;;;1.50;;
67762;SDS011;54566;52.022;5.582;2022-09-09T15:44:57;6.75;;;1.40;;
67762;SDS011;54566;52.022;5.582;2022-09-09T15:47:23;7.90;;;1.50;;
67762;SDS011;54566;52.022;5.582;2022-09-09T15:49:49;6.45;;;1.58;;
67762;SDS011;54566;52.022;5.582;2022-09-09T15:52:15;4.55;;;1.30;;
67762;SDS011;54566;52.022;5.582;2022-09-09T15:54:41;6.20;;;1.70;;
67762;SDS011;54566;52.022;5.582;2022-09-09T15:57:11;5.65;;;1.30;;
67762;SDS011;54566;52.022;5.582;2022-09-09T15:59:37;4.38;;;1.42;;
67762;SDS011;54566;52.022;5.582;2022-09-09T16:02:03;4.97;;;1.55;;
67762;SDS011;54566;52.022;5.582;2022-09-09T16:04:30;5.20;;;1.60;;
67762;SDS011;54566;52.022;5.582;2022-09-09T16:06:57;3.30;;;1.52;;
67762;SDS011;54566;52.022;5.582;2022-09-09T16:09:24;3.88;;;1.38;;
67762;SDS011;54566;52.022;5.582;2022-09-09T16:11:50;6.07;;;1.17;;
67762;SDS011;54566;52.022;5.582;2022-09-09T16:14:18;2.97;;;1.13;;
67762;SDS011;54566;52.022;5.582;2022-09-09T16:16:44;4.13;;;1.35;;
67762;SDS011;54566;52.022;5.582;2022-09-09T16:19:11;4.28;;;1.30;;
67762;SDS011;54566;52.022;5.582;2022-09-09T16:21:39;5.47;;;1.80;;
67762;SDS011;54566;52.022;5.582;2022-09-09T16:24:05;3.72;;;1.58;;
67762;SDS011;54566;52.022;5.582;2022-09-09T16:26:33;4.07;;;1.55;;
67762;SDS011;54566;52.022;5.582;2022-09-09T16:28:59;7.70;;;1.27;;
67762;SDS011;54566;52.022;5.582;2022-09-09T16:31:26;3.17;;;1.45;;
67762;SDS011;54566;52.022;5.582;2022-09-09T16:33:53;9.43;;;1.17;;
67762;SDS011;54566;52.022;5.582;2022-09-09T16:36:23;2.55;;;1.00;;
67762;SDS011;54566;52.022;5.582;2022-09-09T16:38:56;4.30;;;1.20;;
67762;SDS011;54566;52.022;5.582;2022-09-09T16:41:22;4.47;;;1.10;;
67762;SDS011;54566;52.022;5.582;2022-09-09T16:43:52;2.40;;;1.10;;
67762;SDS011;54566;52.022;5.582;2022-09-09T16:46:19;9.02;;;1.10;;
67762;SDS011;54566;52.022;5.582;2022-09-09T16:48:46;3.53;;;1.45;;
67762;SDS011;54566;52.022;5.582;2022-09-09T16:51:13;7.15;;;1.50;;
67762;SDS011;54566;52.022;5.582;2022-09-09T16:53:40;9.48;;;1.45;;
67762;SDS011;54566;52.022;5.582;2022-09-09T16:56:13;6.28;;;1.60;;
67762;SDS011;54566;52.022;5.582;2022-09-09T16:58:40;5.75;;;1.40;;
67762;SDS011;54566;52.022;5.582;2022-09-09T17:01:06;3.70;;;1.37;;
67762;SDS011;54566;52.022;5.582;2022-09-09T17:03:32;5.38;;;1.67;;
67762;SDS011;54566;52.022;5.582;2022-09-09T17:05:59;4.80;;;1.63;;